sensor_id;sensor_type;location;lat;lon;timestamp;pressure;altitude;pressure_sealevel;temperature;humidity
21236;BME280;10775;42.678;26.324;2022-11-15T00:00:32;99401.84;;;10.46;84.62
21236;BME280;10775;42.678;26.324;2022-11-15T00:02:58;99403.56;;;10.49;85.17
21236;BME280;10775;42.678;26.324;2022-11-15T00:05:23;99396.63;;;10.44;84.54
21236;BME280;10775;42.678;26.324;2022-11-15T00:07:49;99397.50;;;10.40;84.47
21236;BME280;10775;42.678;26.324;2022-11-15T00:10:14;99394.94;;;10.36;84.82
21236;BME280;10775;42.678;26.324;2022-11-15T00:12:40;99395.81;;;10.35;84.46
21236;BME280;10775;42.678;26.324;2022-11-15T00:15:06;99395.84;;;10.32;85.17
21236;BME280;10775;42.678;26.324;2022-11-15T00:17:33;99397.59;;;10.31;84.70
21236;BME280;10775;42.678;26.324;2022-11-15T00:19:58;99394.13;;;10.31;85.28
21236;BME280;10775;42.678;26.324;2022-11-15T00:22:24;99391.50;;;10.29;85.03
21236;BME280;10775;42.678;26.324;2022-11-15T00:24:49;99394.16;;;10.23;86.14
21236;BME280;10775;42.678;26.324;2022-11-15T00:27:15;99392.41;;;10.19;85.44
21236;BME280;10775;42.678;26.324;2022-11-15T00:29:40;99395.03;;;10.19;86.58
21236;BME280;10775;42.678;26.324;2022-11-15T00:32:09;99383.75;;;10.15;86.43
21236;BME280;10775;42.678;26.324;2022-11-15T00:34:35;99373.28;;;10.14;85.62
21236;BME280;10775;42.678;26.324;2022-11-15T00:37:01;99375.00;;;10.19;85.54
21236;BME280;10775;42.678;26.324;2022-11-15T00:39:26;99367.13;;;10.24;85.30
21236;BME280;10775;42.678;26.324;2022-11-15T00:41:52;99372.34;;;10.29;85.87
21236;BME280;10775;42.678;26.324;2022-11-15T00:44:17;99371.44;;;10.25;85.26
21236;BME280;10775;42.678;26.324;2022-11-15T00:46:43;99367.97;;;10.26;85.16
21236;BME280;10775;42.678;26.324;2022-11-15T00:49:08;99363.66;;;10.28;84.81
21236;BME280;10775;42.678;26.324;2022-11-15T00:51:34;99361.91;;;10.29;84.85
21236;BME280;10775;42.678;26.324;2022-11-15T00:53:59;99354.91;;;10.24;84.80
21236;BME280;10775;42.678;26.324;2022-11-15T00:56:25;99357.53;;;10.29;84.82
21236;BME280;10775;42.678;26.324;2022-11-15T00:58:50;99356.63;;;10.30;84.50
21236;BME280;10775;42.678;26.324;2022-11-15T01:01:16;99361.88;;;10.32;84.65
21236;BME280;10775;42.678;26.324;2022-11-15T01:03:42;99357.53;;;10.29;84.53
21236;BME280;10775;42.678;26.324;2022-11-15T01:06:08;99363.56;;;10.37;84.73
21236;BME280;10775;42.678;26.324;2022-11-15T01:08:34;99362.69;;;10.35;84.60
21236;BME280;10775;42.678;26.324;2022-11-15T01:11:04;99359.25;;;10.30;84.63
21236;BME280;10775;42.678;26.324;2022-11-15T01:13:31;99352.31;;;10.29;84.51
21236;BME280;10775;42.678;26.324;2022-11-15T01:15:58;99351.41;;;10.30;84.53
21236;BME280;10775;42.678;26.324;2022-11-15T01:18:23;99341.84;;;10.28;84.55
21236;BME280;10775;42.678;26.324;2022-11-15T01:20:49;99344.47;;;10.24;84.42
21236;BME280;10775;42.678;26.324;2022-11-15T01:23:14;99345.31;;;10.25;84.41
21236;BME280;10775;42.678;26.324;2022-11-15T01:25:40;99340.09;;;10.31;84.37
21236;BME280;10775;42.678;26.324;2022-11-15T01:28:06;99348.75;;;10.36;83.88
21236;BME280;10775;42.678;26.324;2022-11-15T01:30:31;99337.44;;;10.33;84.50
21236;BME280;10775;42.678;26.324;2022-11-15T01:32:57;99341.81;;;10.32;83.98
21236;BME280;10775;42.678;26.324;2022-11-15T01:35:22;99339.22;;;10.29;84.76
21236;BME280;10775;42.678;26.324;2022-11-15T01:37:48;99346.19;;;10.27;84.24
21236;BME280;10775;42.678;26.324;2022-11-15T01:40:14;99341.88;;;10.21;84.63
21236;BME280;10775;42.678;26.324;2022-11-15T01:42:39;99340.13;;;10.22;84.13
21236;BME280;10775;42.678;26.324;2022-11-15T01:45:05;99338.38;;;10.26;84.01
21236;BME280;10775;42.678;26.324;2022-11-15T01:47:35;99335.75;;;10.24;83.98
21236;BME280;10775;42.678;26.324;2022-11-15T01:50:10;99342.72;;;10.25;84.91
21236;BME280;10775;42.678;26.324;2022-11-15T01:52:37;99343.66;;;10.18;84.64
21236;BME280;10775;42.678;26.324;2022-11-15T01:57:33;99336.69;;;10.17;84.45
21236;BME280;10775;42.678;26.324;2022-11-15T02:00:00;99341.03;;;10.21;84.60
21236;BME280;10775;42.678;26.324;2022-11-15T02:02:26;99345.38;;;10.20;84.49
21236;BME280;10775;42.678;26.324;2022-11-15T02:04:52;99339.25;;;10.20;84.25
21236;BME280;10775;42.678;26.324;2022-11-15T02:07:19;99329.72;;;10.16;84.40
21236;BME280;10775;42.678;26.324;2022-11-15T02:09:46;99328.84;;;10.17;84.89
21236;BME280;10775;42.678;26.324;2022-11-15T02:12:15;99324.53;;;10.11;85.39
21236;BME280;10775;42.678;26.324;2022-11-15T02:14:47;99321.94;;;10.11;85.07
21236;BME280;10775;42.678;26.324;2022-11-15T02:32:03;99325.44;;;10.07;84.93
21236;BME280;10775;42.678;26.324;2022-11-15T02:34:51;99323.72;;;10.08;85.01
21236;BME280;10775;42.678;26.324;2022-11-15T02:37:52;99330.75;;;9.96;86.31
21236;BME280;10775;42.678;26.324;2022-11-15T02:43:11;99320.31;;;9.95;85.51
21236;BME280;10775;42.678;26.324;2022-11-15T02:46:09;99310.88;;;9.71;87.57
21236;BME280;10775;42.678;26.324;2022-11-15T02:48:38;99323.13;;;9.64;87.53
21236;BME280;10775;42.678;26.324;2022-11-15T02:51:04;99307.41;;;9.69;87.83
21236;BME280;10775;42.678;26.324;2022-11-15T02:53:31;99316.06;;;9.80;86.76
21236;BME280;10775;42.678;26.324;2022-11-15T02:55:57;99314.31;;;9.80;87.45
21236;BME280;10775;42.678;26.324;2022-11-15T03:07:00;99312.69;;;9.64;90.25
21236;BME280;10775;42.678;26.324;2022-11-15T03:09:34;99301.44;;;9.48;89.83
21236;BME280;10775;42.678;26.324;2022-11-15T03:12:10;99302.31;;;9.50;89.95
21236;BME280;10775;42.678;26.324;2022-11-15T03:15:05;99300.53;;;9.62;89.01
21236;BME280;10775;42.678;26.324;2022-11-15T03:17:45;99312.66;;;9.66;89.69
21236;BME280;10775;42.678;26.324;2022-11-15T03:20:15;99315.34;;;9.55;89.94
21236;BME280;10775;42.678;26.324;2022-11-15T03:22:44;99309.25;;;9.54;89.85
21236;BME280;10775;42.678;26.324;2022-11-15T03:25:13;99306.69;;;9.50;90.52
21236;BME280;10775;42.678;26.324;2022-11-15T03:27:43;99306.63;;;9.57;89.40
21236;BME280;10775;42.678;26.324;2022-11-15T03:30:11;99298.75;;;9.64;87.96
21236;BME280;10775;42.678;26.324;2022-11-15T03:32:42;99299.59;;;9.67;87.82
21236;BME280;10775;42.678;26.324;2022-11-15T03:35:12;99295.25;;;9.68;89.49
21236;BME280;10775;42.678;26.324;2022-11-15T03:37:54;99303.09;;;9.63;89.51
21236;BME280;10775;42.678;26.324;2022-11-15T03:40:28;99286.56;;;9.66;87.97
21236;BME280;10775;42.678;26.324;2022-11-15T03:43:04;99290.00;;;9.71;87.77
21236;BME280;10775;42.678;26.324;2022-11-15T03:45:39;99283.91;;;9.72;87.54
21236;BME280;10775;42.678;26.324;2022-11-15T03:50:38;99274.34;;;9.72;86.94
21236;BME280;10775;42.678;26.324;2022-11-15T03:53:04;99276.91;;;9.74;87.20
21236;BME280;10775;42.678;26.324;2022-11-15T03:55:32;99283.00;;;9.76;86.88
21236;BME280;10775;42.678;26.324;2022-11-15T03:57:59;99284.75;;;9.77;86.58
21236;BME280;10775;42.678;26.324;2022-11-15T04:00:25;99288.19;;;9.79;86.71
21236;BME280;10775;42.678;26.324;2022-11-15T04:02:51;99274.34;;;9.72;86.80
21236;BME280;10775;42.678;26.324;2022-11-15T04:05:18;99286.50;;;9.75;86.48
21236;BME280;10775;42.678;26.324;2022-11-15T04:07:44;99274.31;;;9.74;86.45
21236;BME280;10775;42.678;26.324;2022-11-15T04:10:10;99275.16;;;9.76;87.11
21236;BME280;10775;42.678;26.324;2022-11-15T04:12:39;99279.56;;;9.72;86.58
21236;BME280;10775;42.678;26.324;2022-11-15T04:15:08;99279.53;;;9.75;86.98
21236;BME280;10775;42.678;26.324;2022-11-15T04:17:45;99274.31;;;9.75;86.22
21236;BME280;10775;42.678;26.324;2022-11-15T04:20:17;99267.38;;;9.73;87.84
21236;BME280;10775;42.678;26.324;2022-11-15T04:23:04;99275.25;;;9.65;88.09
21236;BME280;10775;42.678;26.324;2022-11-15T04:25:51;99274.44;;;9.55;87.64
21236;BME280;10775;42.678;26.324;2022-11-15T04:28:17;99266.59;;;9.57;88.94
21236;BME280;10775;42.678;26.324;2022-11-15T04:30:43;99268.41;;;9.46;88.68
21236;BME280;10775;42.678;26.324;2022-11-15T04:33:08;99273.66;;;9.44;88.03
21236;BME280;10775;42.678;26.324;2022-11-15T04:35:34;99264.97;;;9.44;88.70
21236;BME280;10775;42.678;26.324;2022-11-15T04:38:00;99263.19;;;9.49;88.70
21236;BME280;10775;42.678;26.324;2022-11-15T04:40:26;99268.34;;;9.55;87.92
21236;BME280;10775;42.678;26.324;2022-11-15T04:42:52;99272.69;;;9.57;87.49
21236;BME280;10775;42.678;26.324;2022-11-15T04:45:17;99264.88;;;9.53;88.53
21236;BME280;10775;42.678;26.324;2022-11-15T04:47:44;99270.97;;;9.53;87.29
21236;BME280;10775;42.678;26.324;2022-11-15T04:50:10;99269.28;;;9.45;87.63
21236;BME280;10775;42.678;26.324;2022-11-15T04:52:40;99266.72;;;9.35;88.85
21236;BME280;10775;42.678;26.324;2022-11-15T04:55:07;99266.78;;;9.31;90.13
21236;BME280;10775;42.678;26.324;2022-11-15T04:57:33;99265.88;;;9.35;89.06
21236;BME280;10775;42.678;26.324;2022-11-15T04:59:58;99265.78;;;9.46;88.07
21236;BME280;10775;42.678;26.324;2022-11-15T05:02:24;99264.09;;;9.40;88.19
21236;BME280;10775;42.678;26.324;2022-11-15T05:05:09;99261.47;;;9.45;88.84
21236;BME280;10775;42.678;26.324;2022-11-15T05:07:35;99261.41;;;9.51;87.91
21236;BME280;10775;42.678;26.324;2022-11-15T05:10:00;99264.88;;;9.54;87.49
21236;BME280;10775;42.678;26.324;2022-11-15T05:12:26;99258.84;;;9.46;89.38
21236;BME280;10775;42.678;26.324;2022-11-15T05:14:51;99260.56;;;9.46;88.32
21236;BME280;10775;42.678;26.324;2022-11-15T05:17:17;99258.81;;;9.48;88.16
21236;BME280;10775;42.678;26.324;2022-11-15T05:19:42;99267.59;;;9.39;88.70
21236;BME280;10775;42.678;26.324;2022-11-15T05:22:08;99260.69;;;9.29;90.27
21236;BME280;10775;42.678;26.324;2022-11-15T05:24:33;99255.59;;;9.01;94.00
21236;BME280;10775;42.678;26.324;2022-11-15T05:26:59;99253.81;;;9.11;92.63
21236;BME280;10775;42.678;26.324;2022-11-15T05:29:24;99270.31;;;9.21;91.41
21236;BME280;10775;42.678;26.324;2022-11-15T05:31:50;99262.47;;;9.24;90.37
21236;BME280;10775;42.678;26.324;2022-11-15T05:34:16;99272.81;;;9.39;89.00
21236;BME280;10775;42.678;26.324;2022-11-15T05:36:43;99277.16;;;9.42;91.10
21236;BME280;10775;42.678;26.324;2022-11-15T05:39:11;99276.38;;;9.26;90.64
21236;BME280;10775;42.678;26.324;2022-11-15T05:44:05;99272.78;;;9.41;88.82
21236;BME280;10775;42.678;26.324;2022-11-15T05:46:32;99273.59;;;9.52;88.59
21236;BME280;10775;42.678;26.324;2022-11-15T05:48:59;99279.72;;;9.46;88.53
21236;BME280;10775;42.678;26.324;2022-11-15T05:51:26;99275.34;;;9.48;88.26
21236;BME280;10775;42.678;26.324;2022-11-15T05:53:56;99277.16;;;9.42;88.39
21236;BME280;10775;42.678;26.324;2022-11-15T05:56:24;99282.31;;;9.49;88.18
21236;BME280;10775;42.678;26.324;2022-11-15T05:58:52;99272.75;;;9.51;87.92
21236;BME280;10775;42.678;26.324;2022-11-15T06:01:18;99279.66;;;9.55;87.80
21236;BME280;10775;42.678;26.324;2022-11-15T06:03:43;99278.78;;;9.60;87.28
21236;BME280;10775;42.678;26.324;2022-11-15T06:06:09;99281.34;;;9.66;86.95
21236;BME280;10775;42.678;26.324;2022-11-15T06:08:34;99282.13;;;9.80;86.11
21236;BME280;10775;42.678;26.324;2022-11-15T06:11:06;99283.81;;;9.86;86.21
21236;BME280;10775;42.678;26.324;2022-11-15T06:13:32;99293.34;;;9.91;86.07
21236;BME280;10775;42.678;26.324;2022-11-15T06:15:58;99296.91;;;9.78;87.30
21236;BME280;10775;42.678;26.324;2022-11-15T06:18:24;99300.47;;;9.66;89.01
21236;BME280;10775;42.678;26.324;2022-11-15T06:20:49;99300.53;;;9.58;90.60
21236;BME280;10775;42.678;26.324;2022-11-15T06:23:15;99291.84;;;9.53;91.64
21236;BME280;10775;42.678;26.324;2022-11-15T06:25:40;99300.56;;;9.52;92.50
21236;BME280;10775;42.678;26.324;2022-11-15T06:28:06;99304.75;;;9.78;93.37
21236;BME280;10775;42.678;26.324;2022-11-15T06:30:32;99300.47;;;9.69;92.75
21236;BME280;10775;42.678;26.324;2022-11-15T06:33:02;99303.94;;;9.70;93.82
21236;BME280;10775;42.678;26.324;2022-11-15T06:35:29;99298.69;;;9.73;94.14
21236;BME280;10775;42.678;26.324;2022-11-15T06:37:55;99297.06;;;9.60;94.87
21236;BME280;10775;42.678;26.324;2022-11-15T06:40:21;99293.41;;;9.79;96.79
21236;BME280;10775;42.678;26.324;2022-11-15T06:42:46;99285.41;;;10.02;96.70
21236;BME280;10775;42.678;26.324;2022-11-15T06:45:12;99292.25;;;10.18;95.60
21236;BME280;10775;42.678;26.324;2022-11-15T06:47:45;99290.44;;;10.27;96.13
21236;BME280;10775;42.678;26.324;2022-11-15T06:50:11;99289.50;;;10.38;95.68
21236;BME280;10775;42.678;26.324;2022-11-15T06:52:37;99285.91;;;10.49;95.96
21236;BME280;10775;42.678;26.324;2022-11-15T06:55:03;99293.69;;;10.56;95.23
21236;BME280;10775;42.678;26.324;2022-11-15T06:57:28;99299.88;;;10.44;94.90
21236;BME280;10775;42.678;26.324;2022-11-15T06:59:54;99300.03;;;10.26;95.87
21236;BME280;10775;42.678;26.324;2022-11-15T07:02:19;99300.84;;;10.33;96.48
21236;BME280;10775;42.678;26.324;2022-11-15T07:04:45;99301.59;;;10.45;97.93
21236;BME280;10775;42.678;26.324;2022-11-15T07:07:11;99299.72;;;10.60;97.58
21236;BME280;10775;42.678;26.324;2022-11-15T07:09:36;99295.31;;;10.66;97.18
21236;BME280;10775;42.678;26.324;2022-11-15T07:12:02;99299.56;;;10.75;97.43
21236;BME280;10775;42.678;26.324;2022-11-15T07:14:27;99297.00;;;10.72;96.55
21236;BME280;10775;42.678;26.324;2022-11-15T07:16:53;99294.38;;;10.72;97.46
21236;BME280;10775;42.678;26.324;2022-11-15T07:19:19;99297.84;;;10.74;97.90
21236;BME280;10775;42.678;26.324;2022-11-15T07:21:44;99296.16;;;10.70;97.19
21236;BME280;10775;42.678;26.324;2022-11-15T07:24:10;99284.75;;;10.76;98.94
21236;BME280;10775;42.678;26.324;2022-11-15T07:26:35;99283.84;;;10.81;96.85
21236;BME280;10775;42.678;26.324;2022-11-15T07:29:01;99286.31;;;10.92;99.35
21236;BME280;10775;42.678;26.324;2022-11-15T07:31:27;99282.75;;;10.96;97.69
21236;BME280;10775;42.678;26.324;2022-11-15T07:33:52;99294.13;;;10.97;97.28
21236;BME280;10775;42.678;26.324;2022-11-15T07:36:18;99282.84;;;10.88;96.89
21236;BME280;10775;42.678;26.324;2022-11-15T07:38:43;99285.38;;;10.96;99.92
21236;BME280;10775;42.678;26.324;2022-11-15T07:41:09;99279.22;;;11.02;99.81
21236;BME280;10775;42.678;26.324;2022-11-15T07:43:35;99274.75;;;11.10;99.44
21236;BME280;10775;42.678;26.324;2022-11-15T07:46:08;99286.09;;;11.12;97.59
21236;BME280;10775;42.678;26.324;2022-11-15T07:48:38;99285.47;;;10.92;98.63
21236;BME280;10775;42.678;26.324;2022-11-15T07:51:05;99283.56;;;11.01;100.00
21236;BME280;10775;42.678;26.324;2022-11-15T07:53:31;99284.28;;;10.38;95.13
21236;BME280;10775;42.678;26.324;2022-11-15T07:55:57;99283.19;;;10.58;100.00
21236;BME280;10775;42.678;26.324;2022-11-15T07:58:22;99274.31;;;10.74;100.00
21236;BME280;10775;42.678;26.324;2022-11-15T08:00:48;99281.28;;;10.75;100.00
21236;BME280;10775;42.678;26.324;2022-11-15T08:03:16;99276.06;;;10.71;100.00
21236;BME280;10775;42.678;26.324;2022-11-15T08:05:43;99277.09;;;10.57;100.00
21236;BME280;10775;42.678;26.324;2022-11-15T08:08:10;99280.28;;;10.85;100.00
21236;BME280;10775;42.678;26.324;2022-11-15T08:10:36;99281.84;;;10.99;100.00
21236;BME280;10775;42.678;26.324;2022-11-15T08:13:06;99275.94;;;10.83;100.00
21236;BME280;10775;42.678;26.324;2022-11-15T08:15:33;99285.03;;;10.51;100.00
21236;BME280;10775;42.678;26.324;2022-11-15T08:18:09;99285.88;;;10.53;100.00
21236;BME280;10775;42.678;26.324;2022-11-15T08:20:35;99288.31;;;10.70;100.00
21236;BME280;10775;42.678;26.324;2022-11-15T08:23:03;99289.78;;;10.93;100.00
21236;BME280;10775;42.678;26.324;2022-11-15T08:25:30;99287.00;;;11.06;100.00
21236;BME280;10775;42.678;26.324;2022-11-15T08:27:58;99283.53;;;11.06;100.00
21236;BME280;10775;42.678;26.324;2022-11-15T08:30:25;99287.81;;;11.13;100.00
21236;BME280;10775;42.678;26.324;2022-11-15T08:32:52;99276.56;;;11.05;100.00
21236;BME280;10775;42.678;26.324;2022-11-15T08:35:19;99283.88;;;10.75;100.00
21236;BME280;10775;42.678;26.324;2022-11-15T08:37:45;99277.22;;;10.48;100.00
21236;BME280;10775;42.678;26.324;2022-11-15T08:40:11;99277.94;;;10.61;100.00
21236;BME280;10775;42.678;26.324;2022-11-15T08:42:36;99264.16;;;10.47;100.00
21236;BME280;10775;42.678;26.324;2022-11-15T08:45:03;99271.13;;;10.46;100.00
21236;BME280;10775;42.678;26.324;2022-11-15T08:47:28;99265.00;;;10.49;100.00
21236;BME280;10775;42.678;26.324;2022-11-15T08:49:54;99266.88;;;10.34;100.00
21236;BME280;10775;42.678;26.324;2022-11-15T08:52:20;99260.75;;;10.38;100.00
21236;BME280;10775;42.678;26.324;2022-11-15T08:54:45;99251.91;;;10.50;100.00
21236;BME280;10775;42.678;26.324;2022-11-15T08:57:11;99244.06;;;10.52;100.00
21236;BME280;10775;42.678;26.324;2022-11-15T08:59:36;99243.97;;;10.58;100.00
21236;BME280;10775;42.678;26.324;2022-11-15T09:02:03;99243.09;;;10.57;100.00
21236;BME280;10775;42.678;26.324;2022-11-15T09:04:29;99242.22;;;10.60;99.41
21236;BME280;10775;42.678;26.324;2022-11-15T09:06:55;99238.81;;;10.52;99.44
21236;BME280;10775;42.678;26.324;2022-11-15T09:09:21;99232.75;;;10.50;98.30
21236;BME280;10775;42.678;26.324;2022-11-15T09:11:46;99235.38;;;10.47;98.57
21236;BME280;10775;42.678;26.324;2022-11-15T09:14:13;99229.38;;;10.37;97.44
21236;BME280;10775;42.678;26.324;2022-11-15T09:16:39;99231.97;;;10.40;97.05
21236;BME280;10775;42.678;26.324;2022-11-15T09:19:04;99225.94;;;10.33;95.26
21236;BME280;10775;42.678;26.324;2022-11-15T09:21:30;99221.38;;;10.54;100.00
21236;BME280;10775;42.678;26.324;2022-11-15T09:23:56;99221.19;;;10.69;98.75
21236;BME280;10775;42.678;26.324;2022-11-15T09:26:22;99220.56;;;10.47;95.38
21236;BME280;10775;42.678;26.324;2022-11-15T09:28:48;99220.72;;;10.33;94.77
21236;BME280;10775;42.678;26.324;2022-11-15T09:31:13;99220.56;;;10.49;98.01
21236;BME280;10775;42.678;26.324;2022-11-15T09:33:39;99216.06;;;10.61;98.01
21236;BME280;10775;42.678;26.324;2022-11-15T09:36:07;99213.25;;;10.75;98.09
21236;BME280;10775;42.678;26.324;2022-11-15T09:38:37;99199.34;;;10.73;96.52
21236;BME280;10775;42.678;26.324;2022-11-15T09:44:07;99203.47;;;10.94;96.21
21236;BME280;10775;42.678;26.324;2022-11-15T09:49:15;99193.84;;;10.93;93.69
21236;BME280;10775;42.678;26.324;2022-11-15T09:51:45;99192.84;;;11.05;94.40
21236;BME280;10775;42.678;26.324;2022-11-15T09:54:21;99189.25;;;11.10;94.05
21236;BME280;10775;42.678;26.324;2022-11-15T09:56:49;99193.59;;;11.12;93.72
21236;BME280;10775;42.678;26.324;2022-11-15T09:59:33;99184.84;;;11.16;93.90
21236;BME280;10775;42.678;26.324;2022-11-15T10:05:07;99179.66;;;11.11;93.31
21236;BME280;10775;42.678;26.324;2022-11-15T10:08:06;99178.75;;;11.15;89.93
21236;BME280;10775;42.678;26.324;2022-11-15T10:10:44;99168.56;;;10.94;91.67
21236;BME280;10775;42.678;26.324;2022-11-15T10:13:36;99166.00;;;10.91;90.78
21236;BME280;10775;42.678;26.324;2022-11-15T10:16:12;99159.94;;;10.85;92.25
21236;BME280;10775;42.678;26.324;2022-11-15T10:22:00;99152.69;;;11.07;91.70
21236;BME280;10775;42.678;26.324;2022-11-15T10:24:34;99149.38;;;10.95;91.41
21236;BME280;10775;42.678;26.324;2022-11-15T10:27:00;99143.13;;;11.03;90.72
21236;BME280;10775;42.678;26.324;2022-11-15T10:29:26;99133.72;;;10.92;90.29
21236;BME280;10775;42.678;26.324;2022-11-15T10:31:52;99131.06;;;10.95;91.71
21236;BME280;10775;42.678;26.324;2022-11-15T10:34:20;99128.50;;;10.88;89.14
21236;BME280;10775;42.678;26.324;2022-11-15T10:36:56;99127.88;;;10.73;89.54
21236;BME280;10775;42.678;26.324;2022-11-15T10:39:23;99122.53;;;10.80;90.10
21236;BME280;10775;42.678;26.324;2022-11-15T10:41:49;99112.81;;;10.90;90.81
21236;BME280;10775;42.678;26.324;2022-11-15T10:47:32;99104.00;;;10.96;88.85
21236;BME280;10775;42.678;26.324;2022-11-15T10:49:34;99113.66;;;10.92;87.89
21236;BME280;10775;42.678;26.324;2022-11-15T10:52:15;99106.78;;;10.85;88.61
21236;BME280;10775;42.678;26.324;2022-11-15T10:54:45;99099.56;;;11.01;89.59
21236;BME280;10775;42.678;26.324;2022-11-15T10:57:16;99097.91;;;10.97;88.79
21236;BME280;10775;42.678;26.324;2022-11-15T10:59:49;99098.66;;;11.03;88.62
21236;BME280;10775;42.678;26.324;2022-11-15T11:02:35;99096.66;;;11.19;88.84
21236;BME280;10775;42.678;26.324;2022-11-15T11:05:28;99086.00;;;11.31;88.82
21236;BME280;10775;42.678;26.324;2022-11-15T11:08:02;99090.25;;;11.37;86.52
21236;BME280;10775;42.678;26.324;2022-11-15T11:10:29;99095.63;;;11.29;86.93
21236;BME280;10775;42.678;26.324;2022-11-15T11:12:55;99085.19;;;11.28;86.97
21236;BME280;10775;42.678;26.324;2022-11-15T11:15:22;99076.44;;;11.30;85.86
21236;BME280;10775;42.678;26.324;2022-11-15T11:17:57;99077.97;;;11.42;87.03
21236;BME280;10775;42.678;26.324;2022-11-15T11:20:33;99072.03;;;11.32;86.01
21236;BME280;10775;42.678;26.324;2022-11-15T11:25:48;99066.81;;;11.32;85.86
21236;BME280;10775;42.678;26.324;2022-11-15T11:28:38;99065.69;;;11.46;85.62
21236;BME280;10775;42.678;26.324;2022-11-15T11:31:20;99061.25;;;11.51;84.58
21236;BME280;10775;42.678;26.324;2022-11-15T11:42:32;99035.63;;;11.67;86.32
21236;BME280;10775;42.678;26.324;2022-11-15T11:45:24;99032.94;;;11.71;85.84
21236;BME280;10775;42.678;26.324;2022-11-15T11:48:13;99028.56;;;11.70;85.65
21236;BME280;10775;42.678;26.324;2022-11-15T11:50:41;99032.06;;;11.71;85.89
21236;BME280;10775;42.678;26.324;2022-11-15T11:53:29;99021.63;;;11.68;85.65
21236;BME280;10775;42.678;26.324;2022-11-15T11:56:02;99018.16;;;11.67;85.93
21236;BME280;10775;42.678;26.324;2022-11-15T11:58:39;99020.97;;;11.58;85.28
21236;BME280;10775;42.678;26.324;2022-11-15T12:01:28;99023.31;;;11.70;89.16
21236;BME280;10775;42.678;26.324;2022-11-15T12:04:01;99015.59;;;11.64;87.49
21236;BME280;10775;42.678;26.324;2022-11-15T12:10:29;99013.81;;;11.66;88.13
21236;BME280;10775;42.678;26.324;2022-11-15T12:13:16;99005.78;;;11.75;87.19
21236;BME280;10775;42.678;26.324;2022-11-15T12:18:47;98994.28;;;11.83;87.40
21236;BME280;10775;42.678;26.324;2022-11-15T12:24:12;99000.09;;;11.99;88.89
21236;BME280;10775;42.678;26.324;2022-11-15T12:27:00;98989.69;;;11.95;88.20
21236;BME280;10775;42.678;26.324;2022-11-15T12:29:51;98996.59;;;12.00;87.44
21236;BME280;10775;42.678;26.324;2022-11-15T12:32:35;98992.22;;;12.00;86.51
21236;BME280;10775;42.678;26.324;2022-11-15T12:35:03;98994.09;;;11.93;87.29
21236;BME280;10775;42.678;26.324;2022-11-15T12:43:04;98987.41;;;11.77;87.11
21236;BME280;10775;42.678;26.324;2022-11-15T12:45:37;98987.34;;;11.80;89.39
21236;BME280;10775;42.678;26.324;2022-11-15T12:58:47;98970.94;;;11.70;92.54
21236;BME280;10775;42.678;26.324;2022-11-15T13:06:47;98962.78;;;11.86;88.96
21236;BME280;10775;42.678;26.324;2022-11-15T13:11:58;98960.31;;;11.78;88.64
21236;BME280;10775;42.678;26.324;2022-11-15T13:17:32;98956.47;;;11.98;91.60
21236;BME280;10775;42.678;26.324;2022-11-15T13:20:15;98949.56;;;11.93;89.27
21236;BME280;10775;42.678;26.324;2022-11-15T13:22:52;98948.59;;;11.99;91.65
21236;BME280;10775;42.678;26.324;2022-11-15T13:25:57;98941.84;;;11.87;87.50
21236;BME280;10775;42.678;26.324;2022-11-15T13:31:30;98939.44;;;11.75;87.70
21236;BME280;10775;42.678;26.324;2022-11-15T13:34:03;98937.66;;;11.77;88.08
21236;BME280;10775;42.678;26.324;2022-11-15T13:36:39;98935.72;;;11.85;90.29
21236;BME280;10775;42.678;26.324;2022-11-15T13:39:12;98930.50;;;11.85;87.66
21236;BME280;10775;42.678;26.324;2022-11-15T13:41:50;98933.13;;;11.87;87.83
21236;BME280;10775;42.678;26.324;2022-11-15T13:44:28;98922.00;;;11.74;89.40
21236;BME280;10775;42.678;26.324;2022-11-15T13:47:15;98924.53;;;11.79;89.65
21236;BME280;10775;42.678;26.324;2022-11-15T13:49:41;98919.66;;;11.60;86.99
21236;BME280;10775;42.678;26.324;2022-11-15T13:52:10;98924.84;;;11.63;88.58
21236;BME280;10775;42.678;26.324;2022-11-15T13:54:47;98924.88;;;11.62;88.64
21236;BME280;10775;42.678;26.324;2022-11-15T13:57:22;98923.16;;;11.61;92.19
21236;BME280;10775;42.678;26.324;2022-11-15T13:59:59;98915.41;;;11.54;90.03
21236;BME280;10775;42.678;26.324;2022-11-15T14:02:31;98912.88;;;11.50;88.98
21236;BME280;10775;42.678;26.324;2022-11-15T14:05:01;98910.91;;;11.61;92.19
21236;BME280;10775;42.678;26.324;2022-11-15T14:07:28;98908.31;;;11.61;91.88
21236;BME280;10775;42.678;26.324;2022-11-15T14:09:54;98906.59;;;11.59;91.01
21236;BME280;10775;42.678;26.324;2022-11-15T14:14:58;98900.50;;;11.58;92.66
21236;BME280;10775;42.678;26.324;2022-11-15T14:19:57;98888.38;;;11.54;94.38
21236;BME280;10775;42.678;26.324;2022-11-15T14:22:33;98882.94;;;11.63;94.35
21236;BME280;10775;42.678;26.324;2022-11-15T14:27:43;98884.06;;;11.50;89.60
21236;BME280;10775;42.678;26.324;2022-11-15T14:30:16;98879.75;;;11.47;93.45
21236;BME280;10775;42.678;26.324;2022-11-15T14:32:48;98871.09;;;11.45;94.79
21236;BME280;10775;42.678;26.324;2022-11-15T14:35:19;98871.03;;;11.48;95.88
21236;BME280;10775;42.678;26.324;2022-11-15T14:37:45;98868.44;;;11.47;94.85
21236;BME280;10775;42.678;26.324;2022-11-15T14:40:14;98866.66;;;11.47;95.18
21236;BME280;10775;42.678;26.324;2022-11-15T14:42:40;98867.59;;;11.45;95.99
21236;BME280;10775;42.678;26.324;2022-11-15T14:45:20;98865.25;;;11.32;90.63
21236;BME280;10775;42.678;26.324;2022-11-15T14:47:46;98854.03;;;11.26;95.49
21236;BME280;10775;42.678;26.324;2022-11-15T14:50:13;98855.69;;;11.30;95.53
21236;BME280;10775;42.678;26.324;2022-11-15T14:52:39;98855.63;;;11.33;94.36